Time;durP1;ratioP1;P1;durP2;ratioP2;P2;SDS_P1;SDS_P2;PMS_P1;PMS_P2;Temp;Humidity;BMP_temperature;BMP_pressure;BME280_temperature;BME280_humidity;BME280_pressure;Samples;Min_cycle;Max_cycle;Signal;HPM_P1;HPM_P2
2023/05/13 00:00:46;;;;;;;;;;;;;;;;;;5132271;27;19972;-54
2023/05/13 00:03:12;;;;;;;;;;;;;;;;;;5113986;28;19912;-54
2023/05/13 00:05:39;;;;;;;;;;;;;;;;;;5115284;28;19907;-54
2023/05/13 00:08:08;;;;;;;;;;;;;;;;;;5115194;28;19960;-54
2023/05/13 00:10:34;;;;;;;;;;;;;;;;;;5115525;28;20344;-55
2023/05/13 00:13:00;;;;;;;;;;;;;;;;;;5114956;28;19919;-54
2023/05/13 00:15:26;;;;;;;;;;;;;;;;;;5115183;28;19959;-54
2023/05/13 00:17:52;;;;;;;;;;;;;;;;;;5134162;27;19912;-54
2023/05/13 00:20:18;;;;;;;;;;;;;;;;;;5134333;27;20017;-54
2023/05/13 00:22:44;;;;;;;;;;;;;;;;;;5135696;27;19907;-54
2023/05/13 00:25:10;;;;;;;;;;;;;;;;;;5135440;27;19912;-54
2023/05/13 00:27:36;;;;;;;;;;;;;;;;;;5135484;27;19912;-54
2023/05/13 00:30:04;;;;;;;;;;;;;;;;;;5135440;27;19903;-54
2023/05/13 00:32:30;;;;;;;;;;;;;;;;;;5134993;27;19911;-54
2023/05/13 00:34:56;;;;;;;;;;;;;;;;;;5128391;27;20264;-55
2023/05/13 00:37:22;;;;;;;;;;;;;;;;;;5135363;27;19960;-54
2023/05/13 00:39:48;;;;;;;;;;;;;;;;;;5135163;27;19946;-54
2023/05/13 00:42:14;;;;;;;;;;;;;;;;;;5134227;27;19911;-54
2023/05/13 00:44:40;;;;;;;;;;;;;;;;;;5134811;27;19912;-54
2023/05/13 00:47:06;;;;;;;;;;;;;;;;;;5124304;27;20053;-54
2023/05/13 00:49:32;;;;;;;;;;;;;;;;;;5113320;28;19998;-54
2023/05/13 00:51:58;;;;;;;;;;;;;;;;;;5114396;28;19912;-54
2023/05/13 00:54:24;;;;;;;;;;;;;;;;;;5114343;28;20312;-54
2023/05/13 00:56:53;;;;;;;;;;;;;;;;;;5121387;27;19915;-54
2023/05/13 00:59:19;;;;;;;;;;;;;;;;;;5134761;27;19956;-54
2023/05/13 01:01:45;;;;;;;;;;;;;;;;;;5130898;27;19915;-54
2023/05/13 01:04:11;;;;;;;;;;;;;;;;;;5128855;27;19958;-54
2023/05/13 01:06:37;;;;;;;;;;;;;;;;;;5114045;28;19966;-54
2023/05/13 01:09:03;;;;;;;;;;;;;;;;;;5114025;28;19947;-54
2023/05/13 01:11:29;;;;;;;;;;;;;;;;;;5114279;28;19922;-54
2023/05/13 01:13:55;;;;;;;;;;;;;;;;;;5113950;28;19907;-54
2023/05/13 01:16:21;;;;;;;;;;;;;;;;;;5114378;28;20290;-55
2023/05/13 01:18:47;;;;;;;;;;;;;;;;;;5131633;27;19916;-54
2023/05/13 01:21:13;;;;;;;;;;;;;;;;;;5134352;27;20331;-54
2023/05/13 01:23:39;;;;;;;;;;;;;;;;;;5134108;27;19959;-54
2023/05/13 01:26:05;;;;;;;;;;;;;;;;;;5134202;27;19957;-54
2023/05/13 01:28:31;;;;;;;;;;;;;;;;;;5134002;27;19920;-54
2023/05/13 01:30:57;;;;;;;;;;;;;;;;;;5134295;27;19946;-54
2023/05/13 01:33:23;;;;;;;;;;;;;;;;;;5119784;27;20452;-54
2023/05/13 01:35:49;;;;;;;;;;;;;;;;;;5113860;28;20374;-55
2023/05/13 01:38:15;;;;;;;;;;;;;;;;;;5113179;28;20276;-54
2023/05/13 01:40:41;;;;;;;;;;;;;;;;;;5113767;28;19908;-54
2023/05/13 01:43:07;;;;;;;;;;;;;;;;;;5113389;28;19950;-54
2023/05/13 01:45:33;;;;;;;;;;;;;;;;;;5126360;27;19912;-54
2023/05/13 01:47:59;;;;;;;;;;;;;;;;;;5114714;27;19915;-54
2023/05/13 01:50:25;;;;;;;;;;;;;;;;;;5131587;27;19951;-54
2023/05/13 01:52:51;;;;;;;;;;;;;;;;;;5112774;28;19915;-54
2023/05/13 01:55:17;;;;;;;;;;;;;;;;;;5112682;28;19920;-54
2023/05/13 01:57:43;;;;;;;;;;;;;;;;;;5113091;28;19955;-54
2023/05/13 02:00:09;;;;;;;;;;;;;;;;;;5112802;28;19955;-54
2023/05/13 02:02:35;;;;;;;;;;;;;;;;;;5115404;27;19919;-55
2023/05/13 02:05:01;;;;;;;;;;;;;;;;;;5132579;27;19990;-54
2023/05/13 02:07:27;;;;;;;;;;;;;;;;;;5133379;27;20465;-55
2023/05/13 02:09:58;;;;;;;;;;;;;;;;;;5133470;27;19930;-54
2023/05/13 02:12:24;;;;;;;;;;;;;;;;;;5123818;27;19912;-54
2023/05/13 02:14:50;;;;;;;;;;;;;;;;;;5112433;28;19919;-55
2023/05/13 02:17:16;;;;;;;;;;;;;;;;;;5128597;27;19920;-54
2023/05/13 02:19:42;;;;;;;;;;;;;;;;;;5129451;27;19917;-54
2023/05/13 02:22:08;;;;;;;;;;;;;;;;;;5132999;27;20367;-54
2023/05/13 02:24:38;;;;;;;;;;;;;;;;;;5133207;27;19964;-54
2023/05/13 02:27:04;;;;;;;;;;;;;;;;;;5132963;27;19911;-55
2023/05/13 02:29:30;;;;;;;;;;;;;;;;;;5132738;27;20006;-55
2023/05/13 02:31:56;;;;;;;;;;;;;;;;;;5114636;27;19915;-55
2023/05/13 02:34:23;;;;;;;;;;;;;;;;;;5118424;27;19952;-54
2023/05/13 02:36:49;;;;;;;;;;;;;;;;;;5112363;28;19960;-54
2023/05/13 02:39:15;;;;;;;;;;;;;;;;;;5112036;28;19919;-55
2023/05/13 02:41:41;;;;;;;;;;;;;;;;;;5112452;28;20018;-55
2023/05/13 02:44:07;;;;;;;;;;;;;;;;;;5127861;27;19952;-54
2023/05/13 02:46:33;;;;;;;;;;;;;;;;;;5112242;28;20375;-54
2023/05/13 02:48:59;;;;;;;;;;;;;;;;;;5118810;27;19911;-55
2023/05/13 02:51:25;;;;;;;;;;;;;;;;;;5133016;27;20000;-54
2023/05/13 02:53:51;;;;;;;;;;;;;;;;;;5132630;27;19908;-55
2023/05/13 02:56:17;;;;;;;;;;;;;;;;;;5132525;27;20355;-55
2023/05/13 02:58:43;;;;;;;;;;;;;;;;;;5132528;27;19934;-55
2023/05/13 03:01:09;;;;;;;;;;;;;;;;;;5132457;28;20358;-55
2023/05/13 03:03:35;;;;;;;;;;;;;;;;;;5129323;28;19907;-55
2023/05/13 03:06:01;;;;;;;;;;;;;;;;;;5114463;28;19926;-55
2023/05/13 03:08:27;;;;;;;;;;;;;;;;;;5116674;28;19960;-55
2023/05/13 03:10:54;;;;;;;;;;;;;;;;;;5116324;28;19992;-55
2023/05/13 03:13:20;;;;;;;;;;;;;;;;;;5116467;28;19916;-55
2023/05/13 03:15:46;;;;;;;;;;;;;;;;;;5116765;28;20327;-55
2023/05/13 03:18:12;;;;;;;;;;;;;;;;;;5115134;28;19943;-55
2023/05/13 03:20:38;;;;;;;;;;;;;;;;;;5133688;27;19919;-55
2023/05/13 03:23:04;;;;;;;;;;;;;;;;;;5136419;27;19929;-55
2023/05/13 03:25:30;;;;;;;;;;;;;;;;;;5136570;27;19912;-56
2023/05/13 03:27:56;;;;;;;;;;;;;;;;;;5136420;27;19938;-55
2023/05/13 03:30:22;;;;;;;;;;;;;;;;;;5136663;27;19918;-55
2023/05/13 03:32:48;;;;;;;;;;;;;;;;;;5136845;27;19939;-56
2023/05/13 03:35:14;;;;;;;;;;;;;;;;;;5122707;27;19958;-56
2023/05/13 03:37:40;;;;;;;;;;;;;;;;;;5115941;28;20018;-56
2023/05/13 03:40:06;;;;;;;;;;;;;;;;;;5115479;28;19908;-55
2023/05/13 03:42:32;;;;;;;;;;;;;;;;;;5115451;28;19955;-56
2023/05/13 03:44:58;;;;;;;;;;;;;;;;;;5114146;28;19988;-55
2023/05/13 03:47:24;;;;;;;;;;;;;;;;;;5114557;28;19943;-55
2023/05/13 03:49:50;;;;;;;;;;;;;;;;;;5121060;27;19946;-55
2023/05/13 03:52:16;;;;;;;;;;;;;;;;;;5136302;27;19919;-55
2023/05/13 03:54:42;;;;;;;;;;;;;;;;;;5136087;27;19951;-54
2023/05/13 03:57:08;;;;;;;;;;;;;;;;;;5136101;27;20304;-55
2023/05/13 03:59:34;;;;;;;;;;;;;;;;;;5136259;27;19912;-61
2023/05/13 04:02:00;;;;;;;;;;;;;;;;;;5135787;27;19940;-55
2023/05/13 04:04:26;;;;;;;;;;;;;;;;;;5133475;27;20008;-55
2023/05/13 04:06:52;;;;;;;;;;;;;;;;;;5115484;28;19959;-55
2023/05/13 04:09:18;;;;;;;;;;;;;;;;;;5130962;27;19911;-54
2023/05/13 04:11:44;;;;;;;;;;;;;;;;;;5115387;28;20362;-55
2023/05/13 04:14:10;;;;;;;;;;;;;;;;;;5130956;27;20357;-55
2023/05/13 04:16:36;;;;;;;;;;;;;;;;;;5115520;28;19908;-55
2023/05/13 04:19:02;;;;;;;;;;;;;;;;;;5115279;27;19954;-55
2023/05/13 04:21:28;;;;;;;;;;;;;;;;;;5115114;28;19957;-55
2023/05/13 04:23:54;;;;;;;;;;;;;;;;;;5114665;28;19915;-63
2023/05/13 04:26:20;;;;;;;;;;;;;;;;;;5114768;28;19946;-55
2023/05/13 04:28:46;;;;;;;;;;;;;;;;;;5114520;28;19924;-55
2023/05/13 04:31:12;;;;;;;;;;;;;;;;;;5114723;28;20337;-55
2023/05/13 04:33:38;;;;;;;;;;;;;;;;;;5114874;27;19939;-54
2023/05/13 04:36:04;;;;;;;;;;;;;;;;;;5135078;27;19914;-54
2023/05/13 04:38:30;;;;;;;;;;;;;;;;;;5135369;27;19961;-55
2023/05/13 04:40:56;;;;;;;;;;;;;;;;;;5135335;27;20334;-54
2023/05/13 04:43:22;;;;;;;;;;;;;;;;;;5134929;27;19965;-54
2023/05/13 04:45:48;;;;;;;;;;;;;;;;;;5135023;27;19907;-55
2023/05/13 04:48:15;;;;;;;;;;;;;;;;;;5114676;27;19934;-54
2023/05/13 04:50:41;;;;;;;;;;;;;;;;;;5130570;27;19926;-55
2023/05/13 04:53:07;;;;;;;;;;;;;;;;;;5135008;27;19907;-55
2023/05/13 04:55:33;;;;;;;;;;;;;;;;;;5135081;27;19907;-55
2023/05/13 04:57:59;;;;;;;;;;;;;;;;;;5134952;27;20394;-55
2023/05/13 05:00:25;;;;;;;;;;;;;;;;;;5135259;27;19939;-55
2023/05/13 05:02:51;;;;;;;;;;;;;;;;;;5135064;27;19914;-55
2023/05/13 05:05:17;;;;;;;;;;;;;;;;;;5123611;27;19950;-55
2023/05/13 05:07:43;;;;;;;;;;;;;;;;;;5116252;27;20423;-55
2023/05/13 05:10:09;;;;;;;;;;;;;;;;;;5134405;27;19907;-55
2023/05/13 05:12:36;;;;;;;;;;;;;;;;;;5134592;27;19912;-56
2023/05/13 05:15:02;;;;;;;;;;;;;;;;;;5134501;27;19908;-55
2023/05/13 05:17:31;;;;;;;;;;;;;;;;;;5134890;27;20389;-56
2023/05/13 05:19:58;;;;;;;;;;;;;;;;;;5126927;27;19920;-55
2023/05/13 05:22:24;;;;;;;;;;;;;;;;;;5133715;27;19915;-55
2023/05/13 05:24:50;;;;;;;;;;;;;;;;;;5134224;27;20021;-55
2023/05/13 05:27:16;;;;;;;;;;;;;;;;;;5134286;27;20422;-56
2023/05/13 05:29:42;;;;;;;;;;;;;;;;;;5133493;27;20361;-55
2023/05/13 05:32:08;;;;;;;;;;;;;;;;;;5134134;27;19908;-56
2023/05/13 05:34:34;;;;;;;;;;;;;;;;;;5132243;27;20334;-55
2023/05/13 05:36:59;;;;;;;;;;;;;;;;;;5113709;28;19907;-57
2023/05/13 05:39:25;;;;;;;;;;;;;;;;;;5114099;28;20313;-55
2023/05/13 05:41:51;;;;;;;;;;;;;;;;;;5113341;28;20309;-56
2023/05/13 05:44:17;;;;;;;;;;;;;;;;;;5113489;28;19914;-56
2023/05/13 05:46:43;;;;;;;;;;;;;;;;;;5119431;27;19954;-55
2023/05/13 05:49:10;;;;;;;;;;;;;;;;;;5132514;27;20319;-55
2023/05/13 05:51:35;;;;;;;;;;;;;;;;;;5133817;27;20385;-55
2023/05/13 05:54:01;;;;;;;;;;;;;;;;;;5133674;27;19915;-55
2023/05/13 05:56:27;;;;;;;;;;;;;;;;;;5133592;27;19907;-55
2023/05/13 05:58:53;;;;;;;;;;;;;;;;;;5133514;27;19938;-55
2023/05/13 06:01:19;;;;;;;;;;;;;;;;;;5121690;27;19919;-55
2023/05/13 06:03:45;;;;;;;;;;;;;;;;;;5112392;28;19998;-57
2023/05/13 06:06:11;;;;;;;;;;;;;;;;;;5112887;28;19918;-55
2023/05/13 06:08:37;;;;;;;;;;;;;;;;;;5112653;28;19943;-56
2023/05/13 06:11:03;;;;;;;;;;;;;;;;;;5112966;28;19916;-55
2023/05/13 06:13:29;;;;;;;;;;;;;;;;;;5112645;28;19957;-56
2023/05/13 06:15:55;;;;;;;;;;;;;;;;;;5113041;28;19915;-56
2023/05/13 06:18:21;;;;;;;;;;;;;;;;;;5111509;28;20420;-55
2023/05/13 06:20:47;;;;;;;;;;;;;;;;;;5116992;27;19912;-55
2023/05/13 06:23:13;;;;;;;;;;;;;;;;;;5132928;27;19911;-55
2023/05/13 06:25:40;;;;;;;;;;;;;;;;;;5133342;27;19914;-55
2023/05/13 06:28:07;;;;;;;;;;;;;;;;;;5132719;27;19920;-55
2023/05/13 06:30:33;;;;;;;;;;;;;;;;;;5133467;27;20397;-55
2023/05/13 06:32:59;;;;;;;;;;;;;;;;;;5132971;27;19968;-55
2023/05/13 06:35:25;;;;;;;;;;;;;;;;;;5132514;27;19908;-54
2023/05/13 06:37:51;;;;;;;;;;;;;;;;;;5113159;28;19951;-55
2023/05/13 06:40:17;;;;;;;;;;;;;;;;;;5111450;28;19959;-55
2023/05/13 06:42:43;;;;;;;;;;;;;;;;;;5112184;28;19969;-56
2023/05/13 06:45:09;;;;;;;;;;;;;;;;;;5112151;28;19989;-55
2023/05/13 06:47:35;;;;;;;;;;;;;;;;;;5111593;28;19961;-54
2023/05/13 06:50:01;;;;;;;;;;;;;;;;;;5110770;28;20390;-55
2023/05/13 06:52:27;;;;;;;;;;;;;;;;;;5125971;27;19912;-55
2023/05/13 06:54:53;;;;;;;;;;;;;;;;;;5132565;27;20382;-55
2023/05/13 06:57:19;;;;;;;;;;;;;;;;;;5132991;27;19908;-55
2023/05/13 06:59:45;;;;;;;;;;;;;;;;;;5132465;27;19911;-56
2023/05/13 07:02:11;;;;;;;;;;;;;;;;;;5132841;28;19912;-55
2023/05/13 07:04:37;;;;;;;;;;;;;;;;;;5131989;28;19939;-55
2023/05/13 07:07:03;;;;;;;;;;;;;;;;;;5113929;28;20272;-55
2023/05/13 07:09:29;;;;;;;;;;;;;;;;;;5111914;28;19908;-55
2023/05/13 07:11:55;;;;;;;;;;;;;;;;;;5113262;28;19980;-68
2023/05/13 07:14:21;;;;;;;;;;;;;;;;;;5124518;28;20355;-55
2023/05/13 07:16:47;;;;;;;;;;;;;;;;;;5132909;28;19935;-55
2023/05/13 07:19:13;;;;;;;;;;;;;;;;;;5131492;28;20354;-55
2023/05/13 07:21:39;;;;;;;;;;;;;;;;;;5132725;28;19919;-55
2023/05/13 07:24:05;;;;;;;;;;;;;;;;;;5123513;28;19915;-55
2023/05/13 07:26:31;;;;;;;;;;;;;;;;;;5112293;28;20332;-55
2023/05/13 07:28:58;;;;;;;;;;;;;;;;;;5111543;28;19926;-55
2023/05/13 07:31:24;;;;;;;;;;;;;;;;;;5112210;28;19908;-55
2023/05/13 07:33:50;;;;;;;;;;;;;;;;;;5110958;28;20633;-55
2023/05/13 07:36:16;;;;;;;;;;;;;;;;;;5111999;28;20402;-55
2023/05/13 07:38:43;;;;;;;;;;;;;;;;;;5115504;28;19917;-55
2023/05/13 07:41:09;;;;;;;;;;;;;;;;;;5119750;28;19915;-56
2023/05/13 07:43:35;;;;;;;;;;;;;;;;;;5127808;28;20007;-56
2023/05/13 07:46:02;;;;;;;;;;;;;;;;;;5131487;28;19943;-56
2023/05/13 07:48:28;;;;;;;;;;;;;;;;;;5110646;28;20011;-55
2023/05/13 07:50:54;;;;;;;;;;;;;;;;;;5115058;27;19951;-55
2023/05/13 07:53:20;;;;;;;;;;;;;;;;;;5123837;27;19998;-55
2023/05/13 07:55:46;;;;;;;;;;;;;;;;;;5115892;28;20026;-56
2023/05/13 07:58:12;;;;;;;;;;;;;;;;;;5115071;28;19912;-56
2023/05/13 08:00:38;;;;;;;;;;;;;;;;;;5115846;28;19995;-56
2023/05/13 08:03:03;;;;;;;;;;;;;;;;;;5114487;28;19930;-56
2023/05/13 08:05:29;;;;;;;;;;;;;;;;;;5115770;28;20355;-57
2023/05/13 08:07:55;;;;;;;;;;;;;;;;;;5133292;27;19951;-56
2023/05/13 08:10:21;;;;;;;;;;;;;;;;;;5136044;27;20303;-56
2023/05/13 08:12:52;;;;;;;;;;;;;;;;;;5136083;27;19998;-55
2023/05/13 08:15:18;;;;;;;;;;;;;;;;;;5135730;27;19960;-56
2023/05/13 08:17:44;;;;;;;;;;;;;;;;;;5136163;27;20359;-56
2023/05/13 08:20:10;;;;;;;;;;;;;;;;;;5135044;27;19995;-56
2023/05/13 08:22:36;;;;;;;;;;;;;;;;;;5122308;27;20473;-56
2023/05/13 08:25:02;;;;;;;;;;;;;;;;;;5115170;28;19916;-56
2023/05/13 08:27:28;;;;;;;;;;;;;;;;;;5114923;28;19916;-56
2023/05/13 08:29:54;;;;;;;;;;;;;;;;;;5114535;28;19918;-55
2023/05/13 08:32:20;;;;;;;;;;;;;;;;;;5114920;28;19908;-55
2023/05/13 08:34:46;;;;;;;;;;;;;;;;;;5113566;28;19915;-55
2023/05/13 08:37:12;;;;;;;;;;;;;;;;;;5122590;27;19951;-56
2023/05/13 08:39:38;;;;;;;;;;;;;;;;;;5123996;27;19950;-55
2023/05/13 08:42:04;;;;;;;;;;;;;;;;;;5114845;28;20390;-54
2023/05/13 08:44:30;;;;;;;;;;;;;;;;;;5114672;28;19907;-55
2023/05/13 08:46:56;;;;;;;;;;;;;;;;;;5106135;28;20430;-55
2023/05/13 08:49:22;;;;;;;;;;;;;;;;;;5093003;28;19956;-56
2023/05/13 08:51:48;;;;;;;;;;;;;;;;;;5096985;27;19919;-55
2023/05/13 08:54:15;;;;;;;;;;;;;;;;;;5114129;28;19956;-56
2023/05/13 08:56:41;;;;;;;;;;;;;;;;;;5116631;27;19927;-58
2023/05/13 08:59:07;;;;;;;;;;;;;;;;;;5114001;28;19908;-56
2023/05/13 09:01:33;;;;;;;;;;;;;;;;;;5114319;28;19999;-56
2023/05/13 09:03:59;;;;;;;;;;;;;;;;;;5112368;28;20019;-56
2023/05/13 09:06:25;;;;;;;;;;;;;;;;;;5114239;28;19915;-55
2023/05/13 09:08:52;;;;;;;;;;;;;;;;;;5129578;27;20305;-56
2023/05/13 09:11:18;;;;;;;;;;;;;;;;;;5113998;28;19965;-56
2023/05/13 09:13:44;;;;;;;;;;;;;;;;;;5113736;28;19908;-56
2023/05/13 09:16:11;;;;;;;;;;;;;;;;;;5114134;28;19912;-56
2023/05/13 09:18:38;;;;;;;;;;;;;;;;;;5128176;27;19912;-55
2023/05/13 09:21:04;;;;;;;;;;;;;;;;;;5134716;27;19953;-55
2023/05/13 09:23:30;;;;;;;;;;;;;;;;;;5115623;27;19916;-55
2023/05/13 09:25:56;;;;;;;;;;;;;;;;;;5134540;27;19998;-55
2023/05/13 09:28:22;;;;;;;;;;;;;;;;;;5133996;27;20064;-55
2023/05/13 09:30:50;;;;;;;;;;;;;;;;;;5115872;27;19911;-55
2023/05/13 09:33:18;;;;;;;;;;;;;;;;;;5133194;27;19907;-55
2023/05/13 09:35:45;;;;;;;;;;;;;;;;;;5134009;27;19908;-55
2023/05/13 09:38:11;;;;;;;;;;;;;;;;;;5125709;27;19923;-55
2023/05/13 09:40:37;;;;;;;;;;;;;;;;;;5113492;28;19912;-55
2023/05/13 09:43:03;;;;;;;;;;;;;;;;;;5113123;28;19989;-55
2023/05/13 09:45:29;;;;;;;;;;;;;;;;;;5113722;28;20352;-55
2023/05/13 09:47:56;;;;;;;;;;;;;;;;;;5112937;28;20388;-55
2023/05/13 09:50:22;;;;;;;;;;;;;;;;;;5112333;28;20356;-55
2023/05/13 09:52:48;;;;;;;;;;;;;;;;;;5115431;27;19916;-55
2023/05/13 09:55:14;;;;;;;;;;;;;;;;;;5133290;27;19986;-55
2023/05/13 09:57:40;;;;;;;;;;;;;;;;;;5134155;27;20389;-55
2023/05/13 10:00:06;;;;;;;;;;;;;;;;;;5133314;27;19961;-56
2023/05/13 10:02:32;;;;;;;;;;;;;;;;;;5132156;27;20025;-55
2023/05/13 10:04:58;;;;;;;;;;;;;;;;;;5127209;27;20392;-55
2023/05/13 10:07:24;;;;;;;;;;;;;;;;;;5113315;28;19919;-56
2023/05/13 10:09:50;;;;;;;;;;;;;;;;;;5112591;28;19912;-56
2023/05/13 10:12:16;;;;;;;;;;;;;;;;;;5112893;28;19958;-56
2023/05/13 10:14:42;;;;;;;;;;;;;;;;;;5113010;28;19973;-56
2023/05/13 10:17:08;;;;;;;;;;;;;;;;;;5114525;27;19918;-57
2023/05/13 10:19:34;;;;;;;;;;;;;;;;;;5111923;28;19951;-57
2023/05/13 10:22:00;;;;;;;;;;;;;;;;;;5113051;28;19908;-57
2023/05/13 10:24:27;;;;;;;;;;;;;;;;;;5112753;28;19908;-57
2023/05/13 10:26:53;;;;;;;;;;;;;;;;;;5112949;28;20388;-56
2023/05/13 10:29:19;;;;;;;;;;;;;;;;;;5112372;28;19962;-57
2023/05/13 10:31:46;;;;;;;;;;;;;;;;;;5112837;28;19928;-57
2023/05/13 10:34:11;;;;;;;;;;;;;;;;;;5111592;28;19908;-57
2023/05/13 10:36:37;;;;;;;;;;;;;;;;;;5125433;27;19911;-57
2023/05/13 10:39:04;;;;;;;;;;;;;;;;;;5132701;27;20015;-57
2023/05/13 10:41:29;;;;;;;;;;;;;;;;;;5133436;27;19908;-57
2023/05/13 10:43:55;;;;;;;;;;;;;;;;;;5132827;27;19963;-57
2023/05/13 10:46:22;;;;;;;;;;;;;;;;;;5125799;27;19909;-57
2023/05/13 10:48:51;;;;;;;;;;;;;;;;;;5091030;28;19966;-57
2023/05/13 10:51:16;;;;;;;;;;;;;;;;;;5091850;28;20353;-60
2023/05/13 10:53:43;;;;;;;;;;;;;;;;;;5095846;27;19923;-60
2023/05/13 10:56:09;;;;;;;;;;;;;;;;;;5133071;27;19916;-57
2023/05/13 10:58:38;;;;;;;;;;;;;;;;;;5132889;27;19973;-57
2023/05/13 11:01:04;;;;;;;;;;;;;;;;;;5114319;28;19915;-56
2023/05/13 11:03:30;;;;;;;;;;;;;;;;;;5132060;28;19996;-57
2023/05/13 11:05:56;;;;;;;;;;;;;;;;;;5132702;28;19911;-57
2023/05/13 11:08:22;;;;;;;;;;;;;;;;;;5132517;28;19919;-57
2023/05/13 11:10:48;;;;;;;;;;;;;;;;;;5115093;28;20295;-57
2023/05/13 11:13:14;;;;;;;;;;;;;;;;;;5111694;28;19908;-57
2023/05/13 11:15:40;;;;;;;;;;;;;;;;;;5128122;28;19908;-57
2023/05/13 11:18:06;;;;;;;;;;;;;;;;;;5111390;28;19914;-56
2023/05/13 11:20:32;;;;;;;;;;;;;;;;;;5112314;28;19987;-58
2023/05/13 11:22:58;;;;;;;;;;;;;;;;;;5112231;28;20361;-57
2023/05/13 11:25:24;;;;;;;;;;;;;;;;;;5123424;27;19942;-57
2023/05/13 11:27:51;;;;;;;;;;;;;;;;;;5136468;27;19926;-57
2023/05/13 11:30:17;;;;;;;;;;;;;;;;;;5136664;27;19915;-56
2023/05/13 11:32:43;;;;;;;;;;;;;;;;;;5136659;27;19916;-56
2023/05/13 11:35:09;;;;;;;;;;;;;;;;;;5135333;27;20355;-56
2023/05/13 11:37:35;;;;;;;;;;;;;;;;;;5136892;27;20375;-56
2023/05/13 11:40:01;;;;;;;;;;;;;;;;;;5129685;27;20228;-56
2023/05/13 11:42:27;;;;;;;;;;;;;;;;;;5115781;28;19915;-56
2023/05/13 11:44:53;;;;;;;;;;;;;;;;;;5115947;28;19908;-57
2023/05/13 11:47:19;;;;;;;;;;;;;;;;;;5115364;28;20024;-58
2023/05/13 11:49:45;;;;;;;;;;;;;;;;;;5114709;28;19907;-56
2023/05/13 11:52:11;;;;;;;;;;;;;;;;;;5115845;28;20003;-57
2023/05/13 11:54:38;;;;;;;;;;;;;;;;;;5116088;27;19911;-57
2023/05/13 11:57:04;;;;;;;;;;;;;;;;;;5136273;27;19908;-57
2023/05/13 11:59:30;;;;;;;;;;;;;;;;;;5136156;27;19914;-57
2023/05/13 12:01:56;;;;;;;;;;;;;;;;;;5135840;27;20582;-56
2023/05/13 12:04:22;;;;;;;;;;;;;;;;;;5116397;27;20002;-57
2023/05/13 12:06:48;;;;;;;;;;;;;;;;;;5136081;27;20426;-57
2023/05/13 12:09:14;;;;;;;;;;;;;;;;;;5135905;27;19954;-57
2023/05/13 12:11:40;;;;;;;;;;;;;;;;;;5119478;27;19918;-57
2023/05/13 12:14:07;;;;;;;;;;;;;;;;;;5114867;28;20418;-57
2023/05/13 12:16:33;;;;;;;;;;;;;;;;;;5115047;28;19942;-57
2023/05/13 12:18:59;;;;;;;;;;;;;;;;;;5114298;28;19912;-57
2023/05/13 12:21:26;;;;;;;;;;;;;;;;;;5116280;27;19931;-57
2023/05/13 12:23:52;;;;;;;;;;;;;;;;;;5135393;27;20317;-57
2023/05/13 12:26:18;;;;;;;;;;;;;;;;;;5124294;27;19952;-56
2023/05/13 12:28:45;;;;;;;;;;;;;;;;;;5114819;28;20291;-56
2023/05/13 12:31:11;;;;;;;;;;;;;;;;;;5114739;28;19912;-56
2023/05/13 12:33:37;;;;;;;;;;;;;;;;;;5114102;28;19950;-57
2023/05/13 12:36:02;;;;;;;;;;;;;;;;;;5114828;28;20379;-57
2023/05/13 12:38:29;;;;;;;;;;;;;;;;;;5113540;28;20374;-57
2023/05/13 12:40:55;;;;;;;;;;;;;;;;;;5120775;27;19998;-57
2023/05/13 12:43:21;;;;;;;;;;;;;;;;;;5125439;27;20379;-56
2023/05/13 12:45:47;;;;;;;;;;;;;;;;;;5130463;27;19912;-56
2023/05/13 12:48:16;;;;;;;;;;;;;;;;;;5112436;28;19915;-57
2023/05/13 12:50:42;;;;;;;;;;;;;;;;;;5114936;28;20053;-58
2023/05/13 12:53:08;;;;;;;;;;;;;;;;;;5113675;28;19938;-57
2023/05/13 12:55:38;;;;;;;;;;;;;;;;;;5114076;27;19908;-60
2023/05/13 12:58:05;;;;;;;;;;;;;;;;;;5133670;27;19911;-57
2023/05/13 13:00:31;;;;;;;;;;;;;;;;;;5134049;27;19964;-57
2023/05/13 13:02:57;;;;;;;;;;;;;;;;;;5125512;27;19945;-57
2023/05/13 13:05:23;;;;;;;;;;;;;;;;;;5133344;27;19914;-57
2023/05/13 13:07:49;;;;;;;;;;;;;;;;;;5134313;27;19916;-57
2023/05/13 13:10:15;;;;;;;;;;;;;;;;;;5134660;27;19907;-57
2023/05/13 13:12:41;;;;;;;;;;;;;;;;;;5134550;27;19922;-57
2023/05/13 13:15:07;;;;;;;;;;;;;;;;;;5134154;27;19912;-57
2023/05/13 13:17:33;;;;;;;;;;;;;;;;;;5134891;27;20373;-57
2023/05/13 13:19:59;;;;;;;;;;;;;;;;;;5133422;27;19939;-56
2023/05/13 13:22:26;;;;;;;;;;;;;;;;;;5134754;27;19938;-57
2023/05/13 13:24:52;;;;;;;;;;;;;;;;;;5133882;27;19915;-56
2023/05/13 13:27:18;;;;;;;;;;;;;;;;;;5123250;27;19939;-56
2023/05/13 13:29:44;;;;;;;;;;;;;;;;;;5114652;27;19919;-56
2023/05/13 13:32:10;;;;;;;;;;;;;;;;;;5113921;28;19908;-56
2023/05/13 13:34:36;;;;;;;;;;;;;;;;;;5113690;27;20385;-56
2023/05/13 13:37:02;;;;;;;;;;;;;;;;;;5113601;27;19998;-56
2023/05/13 13:39:28;;;;;;;;;;;;;;;;;;5113503;28;19942;-57
2023/05/13 13:41:54;;;;;;;;;;;;;;;;;;5119041;27;19911;-57
2023/05/13 13:44:20;;;;;;;;;;;;;;;;;;5134142;27;19970;-58
2023/05/13 13:46:46;;;;;;;;;;;;;;;;;;5120618;27;19954;-56
2023/05/13 13:49:12;;;;;;;;;;;;;;;;;;5091616;28;19908;-57
2023/05/13 13:51:38;;;;;;;;;;;;;;;;;;5093161;28;20272;-57
2023/05/13 13:54:04;;;;;;;;;;;;;;;;;;5092999;28;20431;-57
2023/05/13 13:56:30;;;;;;;;;;;;;;;;;;5101004;28;19911;-57
2023/05/13 13:58:56;;;;;;;;;;;;;;;;;;5113300;28;20394;-56
2023/05/13 14:01:22;;;;;;;;;;;;;;;;;;5113321;28;19915;-56
2023/05/13 14:03:48;;;;;;;;;;;;;;;;;;5112221;28;19947;-56
2023/05/13 14:06:14;;;;;;;;;;;;;;;;;;5112921;28;19907;-56
2023/05/13 14:08:40;;;;;;;;;;;;;;;;;;5112788;28;19930;-57
2023/05/13 14:11:06;;;;;;;;;;;;;;;;;;5114772;27;20070;-58
2023/05/13 14:13:32;;;;;;;;;;;;;;;;;;5133516;27;19990;-57
2023/05/13 14:15:59;;;;;;;;;;;;;;;;;;5132450;27;19914;-57
2023/05/13 14:18:25;;;;;;;;;;;;;;;;;;5113803;27;19968;-57
2023/05/13 14:20:51;;;;;;;;;;;;;;;;;;5133423;27;19914;-57
2023/05/13 14:23:16;;;;;;;;;;;;;;;;;;5114636;27;19943;-56
2023/05/13 14:25:43;;;;;;;;;;;;;;;;;;5133636;27;19911;-57
2023/05/13 14:28:14;;;;;;;;;;;;;;;;;;5113936;27;20144;-57
2023/05/13 14:30:40;;;;;;;;;;;;;;;;;;5112598;28;19946;-57
2023/05/13 14:33:06;;;;;;;;;;;;;;;;;;5111301;28;19955;-57
2023/05/13 14:35:32;;;;;;;;;;;;;;;;;;5112675;28;19939;-58
2023/05/13 14:37:58;;;;;;;;;;;;;;;;;;5112904;28;20386;-57
2023/05/13 14:40:24;;;;;;;;;;;;;;;;;;5128379;27;20199;-57
2023/05/13 14:42:50;;;;;;;;;;;;;;;;;;5125072;27;20162;-57
2023/05/13 14:45:16;;;;;;;;;;;;;;;;;;5133120;27;19911;-57
2023/05/13 14:47:42;;;;;;;;;;;;;;;;;;5117987;27;19912;-57
2023/05/13 14:50:08;;;;;;;;;;;;;;;;;;5111030;28;19911;-57
2023/05/13 14:52:34;;;;;;;;;;;;;;;;;;5112459;28;19919;-56
2023/05/13 14:55:00;;;;;;;;;;;;;;;;;;5112029;28;19908;-57
2023/05/13 14:57:26;;;;;;;;;;;;;;;;;;5114889;27;19964;-57
2023/05/13 14:59:52;;;;;;;;;;;;;;;;;;5112380;28;19908;-60
2023/05/13 15:02:18;;;;;;;;;;;;;;;;;;5111471;28;19950;-60
2023/05/13 15:04:45;;;;;;;;;;;;;;;;;;5111411;28;20279;-57
2023/05/13 15:07:11;;;;;;;;;;;;;;;;;;5127888;28;20067;-57
2023/05/13 15:09:37;;;;;;;;;;;;;;;;;;5112388;28;19950;-58
2023/05/13 15:12:02;;;;;;;;;;;;;;;;;;5113268;28;19908;-58
2023/05/13 15:14:28;;;;;;;;;;;;;;;;;;5132410;28;19958;-58
2023/05/13 15:16:54;;;;;;;;;;;;;;;;;;5132765;28;19915;-58
2023/05/13 15:19:20;;;;;;;;;;;;;;;;;;5112316;28;19955;-58
2023/05/13 15:21:46;;;;;;;;;;;;;;;;;;5112582;28;19908;-57
2023/05/13 15:24:13;;;;;;;;;;;;;;;;;;5111945;28;19911;-58
2023/05/13 15:26:39;;;;;;;;;;;;;;;;;;5123344;28;19926;-58
2023/05/13 15:29:05;;;;;;;;;;;;;;;;;;5131763;28;19920;-58
2023/05/13 15:31:31;;;;;;;;;;;;;;;;;;5114036;28;20390;-57
2023/05/13 15:33:58;;;;;;;;;;;;;;;;;;5130125;28;19911;-58
2023/05/13 15:36:24;;;;;;;;;;;;;;;;;;5106046;28;19962;-58
2023/05/13 15:38:50;;;;;;;;;;;;;;;;;;5109654;28;19931;-59
2023/05/13 15:41:16;;;;;;;;;;;;;;;;;;5110052;28;19912;-58
2023/05/13 15:43:42;;;;;;;;;;;;;;;;;;5105722;28;19969;-58
2023/05/13 15:46:08;;;;;;;;;;;;;;;;;;5110236;28;19919;-58
2023/05/13 15:48:34;;;;;;;;;;;;;;;;;;5106842;28;20387;-58
2023/05/13 15:51:02;;;;;;;;;;;;;;;;;;5111452;28;19912;-57
2023/05/13 15:53:28;;;;;;;;;;;;;;;;;;5108662;28;19922;-57
2023/05/13 15:55:54;;;;;;;;;;;;;;;;;;5110145;28;19927;-58
2023/05/13 15:58:20;;;;;;;;;;;;;;;;;;5117502;28;19947;-57
2023/05/13 16:00:46;;;;;;;;;;;;;;;;;;5127456;28;19912;-57
2023/05/13 16:03:12;;;;;;;;;;;;;;;;;;5109724;28;19951;-57
2023/05/13 16:05:38;;;;;;;;;;;;;;;;;;5111943;28;19919;-57
2023/05/13 16:08:04;;;;;;;;;;;;;;;;;;5110746;28;20371;-57
2023/05/13 16:10:30;;;;;;;;;;;;;;;;;;5111107;28;19911;-57
2023/05/13 16:12:57;;;;;;;;;;;;;;;;;;5112597;27;19961;-54
2023/05/13 16:15:23;;;;;;;;;;;;;;;;;;5114831;28;20434;-55
2023/05/13 16:17:49;;;;;;;;;;;;;;;;;;5114333;28;19907;-57
2023/05/13 16:20:15;;;;;;;;;;;;;;;;;;5115001;27;19955;-55
2023/05/13 16:22:42;;;;;;;;;;;;;;;;;;5114061;28;19968;-55
2023/05/13 16:25:08;;;;;;;;;;;;;;;;;;5113987;28;20010;-56
2023/05/13 16:27:34;;;;;;;;;;;;;;;;;;5110469;28;19915;-56
2023/05/13 16:30:00;;;;;;;;;;;;;;;;;;5120479;27;19926;-56
2023/05/13 16:32:26;;;;;;;;;;;;;;;;;;5114957;28;20366;-56
2023/05/13 16:34:52;;;;;;;;;;;;;;;;;;5112790;28;20015;-57
2023/05/13 16:37:18;;;;;;;;;;;;;;;;;;5114696;28;19916;-55